createdAt,value
2023-02-07T00:01:14.398Z,62.13
2023-02-07T00:03:41.160Z,61.97
2023-02-07T00:06:36.086Z,61.92
2023-02-07T00:09:07.148Z,62.35
2023-02-07T00:11:34.189Z,64.99
2023-02-07T00:14:00.850Z,66.51
2023-02-07T00:16:28.387Z,65.06
2023-02-07T00:18:55.641Z,64.43
2023-02-07T00:21:24.008Z,64.66
2023-02-07T00:23:51.755Z,63.35
2023-02-07T00:26:21.046Z,64.82
2023-02-07T00:28:48.989Z,65.75
2023-02-07T00:31:22.126Z,68.91
2023-02-07T00:33:50.427Z,65.86
2023-02-07T00:36:20.509Z,65.52
2023-02-07T00:38:48.162Z,64.55
2023-02-07T00:41:17.705Z,64.18
2023-02-07T00:43:46.156Z,64.79
2023-02-07T00:46:12.926Z,65.12
2023-02-07T00:48:40.244Z,65.04
2023-02-07T00:51:07.441Z,63.90
2023-02-07T00:53:34.485Z,63.58
2023-02-07T00:56:01.195Z,64.10
2023-02-07T00:58:27.821Z,63.36
2023-02-07T01:00:54.671Z,63.41
2023-02-07T01:03:21.434Z,63.02
2023-02-07T01:05:48.312Z,63.12
2023-02-07T01:08:15.397Z,62.66
2023-02-07T01:10:44.745Z,62.22
2023-02-07T01:13:13.093Z,63.01
2023-02-07T01:15:41.563Z,62.81
2023-02-07T01:18:09.109Z,62.03
2023-02-07T01:20:35.978Z,61.42
2023-02-07T01:23:03.953Z,62.17
2023-02-07T01:25:30.939Z,64.98
2023-02-07T01:27:57.685Z,65.68
2023-02-07T01:30:24.397Z,63.85
2023-02-07T01:32:51.055Z,65.53
2023-02-07T01:35:17.824Z,67.77
2023-02-07T01:37:44.488Z,68.74
2023-02-07T01:40:13.024Z,69.68
2023-02-07T01:42:39.693Z,69.47
2023-02-07T01:45:32.751Z,72.18
2023-02-07T01:48:04.998Z,72.33
2023-02-07T01:50:32.025Z,71.86
2023-02-07T01:53:00.596Z,70.80
2023-02-07T01:55:31.982Z,69.69
2023-02-07T01:58:00.048Z,71.43
2023-02-07T02:00:26.945Z,72.63
2023-02-07T02:02:53.666Z,71.87
2023-02-07T02:05:21.223Z,71.05
2023-02-07T02:07:48.070Z,71.97
2023-02-07T02:10:17.619Z,71.65
2023-02-07T02:13:16.946Z,70.38
2023-02-07T02:15:57.959Z,70.42
2023-02-07T02:18:39.184Z,71.71
2023-02-07T02:21:30.515Z,71.57
2023-02-07T02:24:23.338Z,71.29
2023-02-07T02:27:01.536Z,69.85
2023-02-07T02:29:53.788Z,69.81
2023-02-07T02:32:20.417Z,70.26
2023-02-07T02:35:17.046Z,68.28
2023-02-07T02:37:53.161Z,67.92
2023-02-07T02:40:27.860Z,70.06
2023-02-07T02:43:02.760Z,72.89
2023-02-07T02:45:35.863Z,72.76
2023-02-07T02:48:04.013Z,72.67
2023-02-07T02:50:31.205Z,69.99
2023-02-07T02:52:57.805Z,69.38
2023-02-07T02:55:49.928Z,68.32
2023-02-07T02:58:34.038Z,68.41
2023-02-07T03:01:03.498Z,67.55
2023-02-07T03:03:51.671Z,66.89
2023-02-07T03:06:46.532Z,66.25
2023-02-07T03:09:40.453Z,67.26
2023-02-07T03:12:16.983Z,67.99
2023-02-07T03:14:58.859Z,68.35
2023-02-07T03:17:51.378Z,69.88
2023-02-07T03:20:22.828Z,69.24
2023-02-07T03:22:52.288Z,68.75
2023-02-07T03:25:21.574Z,68.84
2023-02-07T03:27:49.757Z,68.45
2023-02-07T03:30:21.266Z,66.76
2023-02-07T03:32:52.556Z,68.77
2023-02-07T03:35:27.521Z,69.50
2023-02-07T03:37:57.809Z,69.62
2023-02-07T03:40:28.249Z,69.04
2023-02-07T03:43:08.905Z,67.38
2023-02-07T03:45:36.150Z,67.09
2023-02-07T03:48:03.061Z,66.57
2023-02-07T03:50:29.719Z,65.77
2023-02-07T03:52:56.385Z,65.97
2023-02-07T03:55:23.011Z,65.00
2023-02-07T03:57:49.589Z,65.06
2023-02-07T04:00:16.313Z,65.23
2023-02-07T04:02:42.920Z,65.48
2023-02-07T04:05:09.573Z,65.57
2023-02-07T04:07:36.209Z,65.88
2023-02-07T04:10:03.592Z,66.41
2023-02-07T04:12:32.972Z,66.88
2023-02-07T04:15:04.916Z,67.22
2023-02-07T04:17:31.700Z,66.98
2023-02-07T04:19:58.859Z,67.27
2023-02-07T04:22:25.679Z,66.03
2023-02-07T04:24:52.297Z,65.31
2023-02-07T04:27:18.921Z,64.87
2023-02-07T04:29:45.552Z,65.29
2023-02-07T04:32:12.190Z,64.89
2023-02-07T04:34:38.793Z,64.92
2023-02-07T04:37:05.420Z,65.03
2023-02-07T04:39:32.077Z,65.25
2023-02-07T04:41:58.866Z,64.69
2023-02-07T04:44:25.519Z,64.78
2023-02-07T04:46:52.205Z,65.23
2023-02-07T04:49:18.851Z,64.60
2023-02-07T04:51:45.520Z,65.37
2023-02-07T04:54:12.196Z,65.30
2023-02-07T04:56:38.826Z,68.01
2023-02-07T04:59:05.480Z,69.94
2023-02-07T05:01:32.424Z,70.22
2023-02-07T05:03:59.235Z,70.26
2023-02-07T05:06:25.926Z,69.31
2023-02-07T05:08:52.582Z,67.33
2023-02-07T05:11:19.680Z,67.00
2023-02-07T05:13:46.320Z,66.57
2023-02-07T05:16:12.949Z,66.08
2023-02-07T05:18:39.655Z,66.64
2023-02-07T05:21:06.467Z,66.22
2023-02-07T05:23:33.105Z,65.19
2023-02-07T05:25:59.714Z,66.77
2023-02-07T05:28:26.381Z,65.65
2023-02-07T05:30:55.387Z,65.33
2023-02-07T05:33:22.062Z,65.69
2023-02-07T05:35:48.695Z,64.84
2023-02-07T05:38:18.102Z,65.68
2023-02-07T05:40:45.308Z,64.68
2023-02-07T05:43:12.888Z,64.48
2023-02-07T05:45:40.684Z,64.51
2023-02-07T05:48:07.716Z,64.65
2023-02-07T05:50:34.582Z,65.10
2023-02-07T05:53:01.538Z,64.99
2023-02-07T05:55:28.145Z,66.11
2023-02-07T05:57:54.862Z,65.43
2023-02-07T06:00:21.629Z,64.62
2023-02-07T06:02:48.355Z,63.95
2023-02-07T06:05:17.332Z,64.72
2023-02-07T06:07:44.697Z,64.73
2023-02-07T06:10:12.453Z,64.60
2023-02-07T06:12:39.524Z,64.15
2023-02-07T06:15:06.679Z,63.69
2023-02-07T06:17:33.270Z,63.18
2023-02-07T06:20:00.227Z,63.87
2023-02-07T06:22:26.915Z,63.94
2023-02-07T06:24:53.502Z,63.83
2023-02-07T06:27:20.536Z,64.26
2023-02-07T06:29:47.205Z,63.48
2023-02-07T06:32:13.792Z,63.85
2023-02-07T06:34:40.754Z,64.04
2023-02-07T06:37:07.367Z,64.35
2023-02-07T06:39:34.083Z,64.75
2023-02-07T06:42:00.691Z,64.78
2023-02-07T06:44:27.290Z,64.90
2023-02-07T06:46:53.905Z,64.69
2023-02-07T06:49:20.721Z,66.04
2023-02-07T06:51:47.376Z,67.12
2023-02-07T06:54:14.172Z,66.21
2023-02-07T06:56:40.740Z,65.68
2023-02-07T06:59:07.451Z,65.52
2023-02-07T07:01:34.050Z,65.14
2023-02-07T07:04:00.685Z,65.55
2023-02-07T07:06:27.325Z,66.56
2023-02-07T07:08:53.977Z,65.98
2023-02-07T07:11:20.571Z,65.89
2023-02-07T07:13:47.439Z,65.51
2023-02-07T07:16:14.618Z,65.75
2023-02-07T07:18:41.565Z,66.02
2023-02-07T07:21:09.229Z,66.15
2023-02-07T07:23:36.115Z,66.05
2023-02-07T07:26:02.709Z,66.70
2023-02-07T07:28:29.660Z,65.67
2023-02-07T07:31:02.790Z,65.18
2023-02-07T07:33:29.644Z,65.38
2023-02-07T07:36:00.816Z,64.66
2023-02-07T07:38:27.648Z,65.03
2023-02-07T07:40:54.429Z,64.82
2023-02-07T07:43:21.227Z,64.62
2023-02-07T07:45:56.032Z,65.34
2023-02-07T07:48:24.329Z,67.59
2023-02-07T07:50:51.202Z,65.52
2023-02-07T07:53:18.473Z,65.12
2023-02-07T07:55:56.819Z,64.26
2023-02-07T07:58:25.317Z,63.88
2023-02-07T08:00:52.285Z,63.57
2023-02-07T08:03:19.729Z,63.68
2023-02-07T08:05:47.320Z,63.74
2023-02-07T08:08:14.960Z,63.85
2023-02-07T08:10:42.410Z,64.42
2023-02-07T08:13:09.423Z,65.83
2023-02-07T08:15:36.536Z,66.25
2023-02-07T08:18:03.609Z,67.21
2023-02-07T08:20:30.207Z,67.95
2023-02-07T08:22:58.133Z,69.03
2023-02-07T08:25:25.512Z,69.68
2023-02-07T08:27:52.452Z,68.48
2023-02-07T08:30:19.269Z,68.74
2023-02-07T08:32:45.858Z,68.92
2023-02-07T08:35:12.796Z,69.66
2023-02-07T08:37:39.585Z,69.53
2023-02-07T08:40:06.839Z,69.88
2023-02-07T08:42:33.514Z,69.15
2023-02-07T08:45:00.144Z,69.60
2023-02-07T08:47:26.839Z,69.68
2023-02-07T08:49:53.560Z,68.84
2023-02-07T08:52:20.325Z,69.02
2023-02-07T08:54:46.921Z,69.22
2023-02-07T08:57:13.586Z,69.75
2023-02-07T08:59:40.158Z,68.80
2023-02-07T09:02:06.996Z,68.52
2023-02-07T09:04:33.640Z,68.11
2023-02-07T09:07:00.301Z,68.55
2023-02-07T09:09:26.933Z,68.67
2023-02-07T09:11:53.532Z,68.86
2023-02-07T09:14:20.122Z,67.98
2023-02-07T09:16:46.826Z,67.54
2023-02-07T09:19:13.504Z,67.27
2023-02-07T09:21:40.124Z,67.22
2023-02-07T09:24:06.809Z,66.51
2023-02-07T09:26:35.271Z,66.81
2023-02-07T09:29:02.306Z,67.78
2023-02-07T09:31:29.021Z,67.37
2023-02-07T09:33:55.740Z,65.85
2023-02-07T09:36:25.797Z,65.74
2023-02-07T09:38:53.227Z,65.96
2023-02-07T09:41:41.511Z,65.12
2023-02-07T09:44:39.481Z,66.25
2023-02-07T09:47:15.775Z,65.58
2023-02-07T09:49:56.091Z,64.47
2023-02-07T09:53:01.117Z,64.00
2023-02-07T09:55:36.454Z,64.25
2023-02-07T09:58:13.693Z,61.55
2023-02-07T10:00:42.482Z,61.17
2023-02-07T10:03:11.686Z,61.19
2023-02-07T10:05:46.144Z,61.66
2023-02-07T10:08:15.470Z,59.99
2023-02-07T10:10:46.441Z,58.96
2023-02-07T10:13:54.604Z,58.46
2023-02-07T10:16:47.572Z,57.19
2023-02-07T10:19:35.789Z,56.53
2023-02-07T10:22:17.527Z,56.32
2023-02-07T10:25:06.862Z,56.20
2023-02-07T10:28:14.868Z,56.77
2023-02-07T10:30:49.614Z,53.27
2023-02-07T10:33:22.646Z,53.76
2023-02-07T10:35:49.592Z,54.66
2023-02-07T10:38:28.434Z,53.34
2023-02-07T10:41:14.957Z,50.83
2023-02-07T10:43:45.748Z,51.04
2023-02-07T10:46:15.401Z,52.68
2023-02-07T10:48:42.648Z,53.47
2023-02-07T10:51:35.582Z,52.72
2023-02-07T10:54:14.669Z,53.17
2023-02-07T10:56:47.241Z,53.32
2023-02-07T10:59:35.830Z,53.02
2023-02-07T11:02:24.728Z,52.60
2023-02-07T11:04:51.618Z,50.28
2023-02-07T11:07:18.292Z,49.80
2023-02-07T11:09:44.857Z,49.71
2023-02-07T11:12:23.002Z,47.60
2023-02-07T11:15:05.126Z,49.15
2023-02-07T11:17:34.658Z,46.53
2023-02-07T11:20:06.786Z,47.50
2023-02-07T11:22:34.013Z,47.14
2023-02-07T11:25:04.233Z,48.69
2023-02-07T11:27:38.669Z,49.20
2023-02-07T11:30:27.117Z,47.58
2023-02-07T11:33:05.777Z,43.48
2023-02-07T11:35:32.461Z,45.95
2023-02-07T11:38:11.498Z,46.44
2023-02-07T11:40:47.199Z,46.04
2023-02-07T11:43:17.381Z,45.45
2023-02-07T11:45:48.529Z,43.95
2023-02-07T11:48:21.967Z,41.66
2023-02-07T11:50:53.885Z,42.79
2023-02-07T11:53:24.815Z,44.09
2023-02-07T11:55:54.502Z,41.72
2023-02-07T11:58:38.453Z,41.19
2023-02-07T12:01:07.456Z,42.00
2023-02-07T12:03:42.328Z,42.85
2023-02-07T12:06:16.305Z,42.97
2023-02-07T12:08:44.297Z,41.77
2023-02-07T12:11:13.276Z,40.94
2023-02-07T12:13:46.540Z,42.10
2023-02-07T12:16:24.584Z,43.57
2023-02-07T12:19:01.682Z,42.30
2023-02-07T12:21:31.103Z,42.24
2023-02-07T12:24:20.743Z,42.62
2023-02-07T12:26:58.248Z,42.54
2023-02-07T12:29:42.614Z,40.33
2023-02-07T12:32:27.740Z,41.28
2023-02-07T12:35:00.263Z,41.78
2023-02-07T12:37:39.193Z,40.47
2023-02-07T12:40:20.724Z,40.63
2023-02-07T12:42:55.174Z,41.48
2023-02-07T12:45:37.964Z,40.65
2023-02-07T12:48:28.228Z,40.35
2023-02-07T12:51:23.208Z,42.54
2023-02-07T12:54:17.329Z,42.73
2023-02-07T12:56:49.890Z,41.91
2023-02-07T12:59:58.169Z,40.61
2023-02-07T13:02:27.873Z,42.46
2023-02-07T13:05:10.239Z,41.42
2023-02-07T13:07:45.934Z,41.78
2023-02-07T13:10:41.625Z,41.29
2023-02-07T13:13:16.990Z,43.39
2023-02-07T13:16:07.456Z,41.60
2023-02-07T13:18:43.240Z,42.28
2023-02-07T13:21:46.955Z,41.74
2023-02-07T13:24:18.516Z,40.40
2023-02-07T13:27:00.868Z,41.65
2023-02-07T13:29:31.898Z,40.78
2023-02-07T13:32:02.785Z,41.77
2023-02-07T13:34:39.878Z,40.49
2023-02-07T13:37:16.456Z,40.75
2023-02-07T13:39:53.519Z,41.54
2023-02-07T13:42:24.148Z,40.29
2023-02-07T13:45:10.681Z,41.67
2023-02-07T13:47:52.344Z,40.60
2023-02-07T13:50:43.843Z,40.64
2023-02-07T13:53:41.913Z,40.23
2023-02-07T13:56:30.820Z,40.88
2023-02-07T13:59:16.034Z,42.65
2023-02-07T14:02:00.841Z,41.76
2023-02-07T14:04:50.559Z,40.91
2023-02-07T14:07:34.010Z,41.14
2023-02-07T14:10:00.594Z,41.75
2023-02-07T14:12:30.036Z,43.10
2023-02-07T14:15:28.700Z,41.56
2023-02-07T14:17:57.134Z,41.92
2023-02-07T14:21:00.189Z,42.17
2023-02-07T14:23:49.466Z,41.03
2023-02-07T14:26:38.022Z,41.62
2023-02-07T14:29:23.096Z,43.07
2023-02-07T14:32:01.839Z,42.15
2023-02-07T14:34:52.378Z,42.98
2023-02-07T14:37:38.379Z,42.77
2023-02-07T14:40:17.855Z,42.76
2023-02-07T14:42:55.477Z,43.15
2023-02-07T14:45:23.086Z,43.37
2023-02-07T14:47:51.371Z,42.66
2023-02-07T14:50:28.106Z,43.18
2023-02-07T14:52:55.920Z,42.88
2023-02-07T14:55:31.921Z,42.80
2023-02-07T14:58:11.718Z,44.16
2023-02-07T15:00:48.115Z,43.04
2023-02-07T15:03:18.778Z,43.67
2023-02-07T15:05:52.861Z,44.50
2023-02-07T15:08:21.398Z,44.37
2023-02-07T15:11:12.203Z,44.61
2023-02-07T15:13:43.246Z,43.70
2023-02-07T15:16:12.606Z,43.20
2023-02-07T15:18:42.998Z,45.11
2023-02-07T15:21:37.553Z,44.51
2023-02-07T15:24:16.408Z,44.05
2023-02-07T15:26:44.366Z,44.63
2023-02-07T15:29:26.317Z,44.31
2023-02-07T15:31:53.200Z,44.91
2023-02-07T15:34:31.815Z,45.50
2023-02-07T15:37:15.049Z,45.25
2023-02-07T15:39:42.349Z,45.69
2023-02-07T15:42:16.572Z,44.91
2023-02-07T15:44:51.947Z,46.19
2023-02-07T15:47:39.096Z,46.56
2023-02-07T15:50:23.586Z,46.33
2023-02-07T15:52:54.190Z,45.92
2023-02-07T15:55:36.611Z,45.69
2023-02-07T15:58:05.564Z,45.84
2023-02-07T16:00:40.391Z,46.72
2023-02-07T16:03:21.514Z,45.52
2023-02-07T16:05:49.017Z,47.65
2023-02-07T16:08:37.153Z,46.12
2023-02-07T16:11:27.808Z,45.23
2023-02-07T16:13:54.381Z,45.49
2023-02-07T16:16:26.952Z,45.51
2023-02-07T16:19:06.620Z,45.85
2023-02-07T16:21:33.702Z,45.37
2023-02-07T16:24:11.421Z,45.86
2023-02-07T16:26:38.092Z,44.63
2023-02-07T16:29:06.444Z,45.85
2023-02-07T16:31:34.527Z,46.92
2023-02-07T16:34:01.204Z,46.54
2023-02-07T16:36:28.933Z,47.02
2023-02-07T16:38:55.544Z,46.21
2023-02-07T16:41:31.680Z,47.99
2023-02-07T16:44:05.192Z,46.79
2023-02-07T16:46:32.345Z,46.66
2023-02-07T16:48:58.955Z,45.50
2023-02-07T16:51:25.603Z,45.23
2023-02-07T16:53:52.245Z,45.00
2023-02-07T16:56:26.822Z,46.71
2023-02-07T16:58:53.702Z,46.89
2023-02-07T17:01:22.476Z,46.25
2023-02-07T17:03:49.378Z,46.85
2023-02-07T17:06:18.637Z,44.77
2023-02-07T17:08:45.904Z,46.94
2023-02-07T17:11:24.822Z,47.35
2023-02-07T17:13:56.400Z,45.84
2023-02-07T17:16:24.253Z,45.79
2023-02-07T17:18:51.641Z,45.74
2023-02-07T17:21:18.379Z,45.09
2023-02-07T17:23:46.460Z,44.39
2023-02-07T17:26:30.038Z,44.66
2023-02-07T17:28:56.780Z,44.28
2023-02-07T17:31:23.485Z,44.39
2023-02-07T17:33:53.721Z,44.54
2023-02-07T17:36:20.673Z,44.91
2023-02-07T17:38:47.313Z,46.15
2023-02-07T17:41:15.130Z,45.51
2023-02-07T17:43:42.415Z,45.14
2023-02-07T17:46:17.532Z,44.75
2023-02-07T17:48:47.492Z,45.08
2023-02-07T17:51:19.750Z,44.86
2023-02-07T17:53:47.018Z,44.87
2023-02-07T17:56:21.469Z,44.76
2023-02-07T17:58:48.345Z,44.43
2023-02-07T18:01:19.226Z,44.18
2023-02-07T18:03:49.686Z,43.99
2023-02-07T18:06:18.424Z,44.18
2023-02-07T18:08:45.638Z,43.39
2023-02-07T18:11:14.400Z,43.91
2023-02-07T18:13:43.317Z,43.86
2023-02-07T18:16:14.043Z,44.06
2023-02-07T18:18:40.633Z,43.85
2023-02-07T18:21:07.384Z,44.30
2023-02-07T18:23:34.161Z,44.41
2023-02-07T18:26:00.888Z,43.89
2023-02-07T18:28:27.670Z,43.99
2023-02-07T18:30:54.337Z,44.36
2023-02-07T18:33:20.934Z,43.94
2023-02-07T18:35:51.394Z,43.70
2023-02-07T18:38:18.153Z,45.00
2023-02-07T18:40:44.821Z,44.69
2023-02-07T18:43:11.422Z,44.27
2023-02-07T18:45:42.160Z,44.83
2023-02-07T18:48:09.461Z,44.49
2023-02-07T18:50:36.110Z,44.34
2023-02-07T18:53:02.729Z,44.53
2023-02-07T18:55:29.321Z,44.13
2023-02-07T18:57:57.083Z,44.33
2023-02-07T19:00:23.720Z,44.39
2023-02-07T19:02:50.413Z,44.47
2023-02-07T19:05:17.186Z,44.26
2023-02-07T19:07:43.831Z,44.69
2023-02-07T19:10:12.298Z,45.01
2023-02-07T19:12:39.414Z,45.02
2023-02-07T19:15:06.901Z,44.54
2023-02-07T19:17:34.637Z,45.08
2023-02-07T19:20:01.238Z,45.00
2023-02-07T19:22:35.337Z,45.02
2023-02-07T19:25:03.102Z,45.53
2023-02-07T19:27:29.690Z,44.72
2023-02-07T19:29:56.284Z,44.47
2023-02-07T19:32:22.872Z,45.27
2023-02-07T19:34:50.120Z,46.05
2023-02-07T19:37:16.860Z,45.81
2023-02-07T19:39:46.182Z,45.35
2023-02-07T19:42:13.356Z,45.53
2023-02-07T19:44:39.973Z,45.78
2023-02-07T19:47:06.701Z,46.01
2023-02-07T19:49:33.290Z,46.31
2023-02-07T19:51:59.930Z,46.10
2023-02-07T19:54:26.542Z,45.97
2023-02-07T19:56:53.182Z,46.25
2023-02-07T19:59:19.882Z,46.90
2023-02-07T20:01:46.517Z,46.63
2023-02-07T20:04:13.334Z,48.16
2023-02-07T20:06:40.137Z,47.05
2023-02-07T20:09:07.602Z,48.12
2023-02-07T20:11:35.058Z,46.85
2023-02-07T20:14:03.630Z,46.71
2023-02-07T20:16:33.873Z,47.38
2023-02-07T20:19:00.988Z,47.27
2023-02-07T20:21:29.938Z,47.50
2023-02-07T20:23:57.549Z,47.09
2023-02-07T20:26:44.026Z,47.62
2023-02-07T20:29:15.925Z,48.05
2023-02-07T20:31:44.355Z,47.61
2023-02-07T20:34:11.688Z,47.82
2023-02-07T20:36:42.232Z,48.59
2023-02-07T20:39:15.578Z,47.94
2023-02-07T20:41:43.316Z,48.12
2023-02-07T20:44:15.997Z,48.17
2023-02-07T20:46:43.934Z,47.60
2023-02-07T20:49:19.844Z,48.17
2023-02-07T20:51:51.931Z,48.02
2023-02-07T20:54:21.752Z,48.12
2023-02-07T20:56:48.641Z,47.71
2023-02-07T20:59:21.770Z,47.90
2023-02-07T21:01:48.705Z,47.69
2023-02-07T21:04:15.719Z,48.12
2023-02-07T21:06:45.236Z,48.26
2023-02-07T21:09:13.212Z,47.80
2023-02-07T21:11:45.372Z,48.38
2023-02-07T21:14:32.148Z,49.38
2023-02-07T21:17:01.970Z,48.85
2023-02-07T21:19:28.913Z,48.29
2023-02-07T21:21:55.568Z,47.82
2023-02-07T21:24:22.515Z,48.66
2023-02-07T21:26:50.721Z,49.94
2023-02-07T21:29:18.017Z,49.48
2023-02-07T21:31:45.426Z,49.14
2023-02-07T21:34:13.179Z,49.22
2023-02-07T21:36:39.995Z,49.68
2023-02-07T21:39:10.601Z,49.83
2023-02-07T21:41:39.495Z,49.44
2023-02-07T21:44:06.139Z,49.34
2023-02-07T21:46:35.882Z,50.14
2023-02-07T21:49:08.754Z,50.03
2023-02-07T21:51:36.334Z,50.59
2023-02-07T21:54:07.352Z,51.36
2023-02-07T21:56:38.177Z,50.96
2023-02-07T21:59:08.314Z,50.90
2023-02-07T22:01:36.601Z,49.88
2023-02-07T22:04:04.552Z,48.79
2023-02-07T22:06:31.742Z,49.85
2023-02-07T22:09:00.800Z,50.04
2023-02-07T22:11:30.531Z,49.27
2023-02-07T22:13:58.014Z,50.25
2023-02-07T22:16:26.494Z,50.15
2023-02-07T22:18:54.678Z,50.08
2023-02-07T22:21:24.015Z,50.61
2023-02-07T22:23:51.722Z,50.57
2023-02-07T22:26:18.839Z,51.05
2023-02-07T22:28:46.508Z,51.68
2023-02-07T22:31:21.365Z,51.69
2023-02-07T22:33:49.261Z,51.71
2023-02-07T22:36:21.947Z,51.00
2023-02-07T22:38:49.381Z,51.66
2023-02-07T22:41:16.927Z,51.82
2023-02-07T22:43:43.589Z,50.63
2023-02-07T22:46:14.037Z,50.28
2023-02-07T22:48:40.703Z,50.34
2023-02-07T22:51:15.773Z,50.44
2023-02-07T22:53:42.430Z,50.78
2023-02-07T22:56:09.446Z,50.94
2023-02-07T22:58:36.362Z,51.62
2023-02-07T23:01:04.296Z,51.76
2023-02-07T23:03:30.980Z,52.59
2023-02-07T23:05:57.632Z,53.30
2023-02-07T23:08:24.335Z,52.15
2023-02-07T23:10:50.913Z,52.05
2023-02-07T23:13:17.557Z,52.14
2023-02-07T23:15:46.358Z,52.38
2023-02-07T23:18:15.631Z,51.82
2023-02-07T23:20:44.579Z,53.25
2023-02-07T23:23:12.415Z,52.60
2023-02-07T23:25:43.920Z,52.83
2023-02-07T23:28:11.233Z,52.98
2023-02-07T23:30:38.527Z,53.14
2023-02-07T23:33:07.002Z,52.24
2023-02-07T23:35:33.867Z,52.84
2023-02-07T23:38:01.820Z,52.83
2023-02-07T23:40:29.082Z,54.70
2023-02-07T23:42:56.005Z,54.23
2023-02-07T23:45:22.857Z,53.01
2023-02-07T23:47:49.488Z,52.34
2023-02-07T23:50:16.151Z,51.98
2023-02-07T23:52:42.772Z,52.53
2023-02-07T23:55:09.399Z,54.50
2023-02-07T23:57:36.045Z,55.19
